sensor_id;sensor_type;location;lat;lon;timestamp;P1;P2;P0
40947;PMS5003;49382;-25.924;28.194;2023-01-28T00:01:22;27;27;
40947;PMS5003;49382;-25.924;28.194;2023-01-28T00:03:48;30;27;
40947;PMS5003;49382;-25.924;28.194;2023-01-28T00:06:14;28;28;
40947;PMS5003;49382;-25.924;28.194;2023-01-28T00:08:39;27;27;
40947;PMS5003;49382;-25.924;28.194;2023-01-28T00:11:05;27;27;
40947;PMS5003;49382;-25.924;28.194;2023-01-28T00:13:30;25;25;
40947;PMS5003;49382;-25.924;28.194;2023-01-28T00:15:56;23;23;
40947;PMS5003;49382;-25.924;28.194;2023-01-28T00:18:22;26;25;
40947;PMS5003;49382;-25.924;28.194;2023-01-28T00:23:13;26;25;
40947;PMS5003;49382;-25.924;28.194;2023-01-28T00:25:38;24;24;
40947;PMS5003;49382;-25.924;28.194;2023-01-28T00:28:04;26;26;
40947;PMS5003;49382;-25.924;28.194;2023-01-28T00:30:30;29;28;
40947;PMS5003;49382;-25.924;28.194;2023-01-28T00:32:56;28;27;
40947;PMS5003;49382;-25.924;28.194;2023-01-28T00:35:21;25;25;
40947;PMS5003;49382;-25.924;28.194;2023-01-28T00:37:47;26;25;
40947;PMS5003;49382;-25.924;28.194;2023-01-28T00:40:12;28;28;
40947;PMS5003;49382;-25.924;28.194;2023-01-28T00:42:38;26;26;
40947;PMS5003;49382;-25.924;28.194;2023-01-28T00:45:03;28;27;
40947;PMS5003;49382;-25.924;28.194;2023-01-28T00:47:29;26;24;
40947;PMS5003;49382;-25.924;28.194;2023-01-28T00:49:55;27;27;
40947;PMS5003;49382;-25.924;28.194;2023-01-28T00:52:20;26;25;
40947;PMS5003;49382;-25.924;28.194;2023-01-28T00:54:46;30;28;
40947;PMS5003;49382;-25.924;28.194;2023-01-28T00:57:12;29;28;
40947;PMS5003;49382;-25.924;28.194;2023-01-28T00:59:38;28;28;
40947;PMS5003;49382;-25.924;28.194;2023-01-28T01:02:03;25;25;
40947;PMS5003;49382;-25.924;28.194;2023-01-28T01:04:29;28;28;
40947;PMS5003;49382;-25.924;28.194;2023-01-28T01:06:55;30;30;
40947;PMS5003;49382;-25.924;28.194;2023-01-28T01:09:20;29;29;
40947;PMS5003;49382;-25.924;28.194;2023-01-28T01:11:46;26;26;
40947;PMS5003;49382;-25.924;28.194;2023-01-28T01:14:11;26;26;
40947;PMS5003;49382;-25.924;28.194;2023-01-28T01:16:37;30;30;
40947;PMS5003;49382;-25.924;28.194;2023-01-28T01:19:03;25;25;
40947;PMS5003;49382;-25.924;28.194;2023-01-28T01:21:28;26;25;
40947;PMS5003;49382;-25.924;28.194;2023-01-28T01:23:54;28;28;
40947;PMS5003;49382;-25.924;28.194;2023-01-28T01:26:20;26;25;
40947;PMS5003;49382;-25.924;28.194;2023-01-28T01:28:45;28;27;
40947;PMS5003;49382;-25.924;28.194;2023-01-28T01:31:11;26;26;
40947;PMS5003;49382;-25.924;28.194;2023-01-28T01:33:36;32;30;
40947;PMS5003;49382;-25.924;28.194;2023-01-28T01:36:02;26;26;
40947;PMS5003;49382;-25.924;28.194;2023-01-28T01:38:28;28;26;
40947;PMS5003;49382;-25.924;28.194;2023-01-28T01:40:55;26;26;
40947;PMS5003;49382;-25.924;28.194;2023-01-28T01:43:20;28;27;
40947;PMS5003;49382;-25.924;28.194;2023-01-28T01:45:44;25;25;
40947;PMS5003;49382;-25.924;28.194;2023-01-28T01:48:12;27;27;
40947;PMS5003;49382;-25.924;28.194;2023-01-28T01:50:36;27;27;
40947;PMS5003;49382;-25.924;28.194;2023-01-28T01:53:01;28;27;
40947;PMS5003;49382;-25.924;28.194;2023-01-28T01:55:26;26;25;
40947;PMS5003;49382;-25.924;28.194;2023-01-28T01:57:53;27;27;
40947;PMS5003;49382;-25.924;28.194;2023-01-28T02:00:17;25;25;
40947;PMS5003;49382;-25.924;28.194;2023-01-28T02:02:43;22;22;
40947;PMS5003;49382;-25.924;28.194;2023-01-28T02:05:09;20;20;
40947;PMS5003;49382;-25.924;28.194;2023-01-28T02:07:33;21;21;
40947;PMS5003;49382;-25.924;28.194;2023-01-28T02:09:58;22;22;
40947;PMS5003;49382;-25.924;28.194;2023-01-28T02:12:25;20;20;
40947;PMS5003;49382;-25.924;28.194;2023-01-28T02:14:50;22;22;
40947;PMS5003;49382;-25.924;28.194;2023-01-28T02:17:15;24;22;
40947;PMS5003;49382;-25.924;28.194;2023-01-28T02:19:44;22;21;
40947;PMS5003;49382;-25.924;28.194;2023-01-28T02:22:11;21;20;
40947;PMS5003;49382;-25.924;28.194;2023-01-28T02:24:41;21;21;
40947;PMS5003;49382;-25.924;28.194;2023-01-28T02:27:04;20;19;
40947;PMS5003;49382;-25.924;28.194;2023-01-28T02:29:24;21;20;
40947;PMS5003;49382;-25.924;28.194;2023-01-28T02:31:51;19;18;
40947;PMS5003;49382;-25.924;28.194;2023-01-28T02:34:17;20;19;
40947;PMS5003;49382;-25.924;28.194;2023-01-28T02:36:41;21;21;
40947;PMS5003;49382;-25.924;28.194;2023-01-28T02:39:07;18;17;
40947;PMS5003;49382;-25.924;28.194;2023-01-28T02:41:33;15;15;
40947;PMS5003;49382;-25.924;28.194;2023-01-28T02:44:00;15;15;
40947;PMS5003;49382;-25.924;28.194;2023-01-28T02:48:49;15;14;
40947;PMS5003;49382;-25.924;28.194;2023-01-28T02:51:16;15;14;
40947;PMS5003;49382;-25.924;28.194;2023-01-28T02:53:42;17;17;
40947;PMS5003;49382;-25.924;28.194;2023-01-28T02:56:09;15;15;
40947;PMS5003;49382;-25.924;28.194;2023-01-28T02:58:34;14;14;
40947;PMS5003;49382;-25.924;28.194;2023-01-28T03:00:59;15;14;
40947;PMS5003;49382;-25.924;28.194;2023-01-28T03:03:25;17;16;
40947;PMS5003;49382;-25.924;28.194;2023-01-28T03:05:50;17;17;
40947;PMS5003;49382;-25.924;28.194;2023-01-28T03:08:15;18;18;
40947;PMS5003;49382;-25.924;28.194;2023-01-28T03:10:41;19;17;
40947;PMS5003;49382;-25.924;28.194;2023-01-28T03:13:07;16;15;
40947;PMS5003;49382;-25.924;28.194;2023-01-28T03:15:33;14;14;
40947;PMS5003;49382;-25.924;28.194;2023-01-28T03:18:00;18;17;
40947;PMS5003;49382;-25.924;28.194;2023-01-28T03:20:24;19;19;
40947;PMS5003;49382;-25.924;28.194;2023-01-28T03:22:50;18;17;
40947;PMS5003;49382;-25.924;28.194;2023-01-28T03:25:15;17;17;
40947;PMS5003;49382;-25.924;28.194;2023-01-28T03:27:42;16;16;
40947;PMS5003;49382;-25.924;28.194;2023-01-28T03:30:08;20;19;
40947;PMS5003;49382;-25.924;28.194;2023-01-28T03:32:32;18;17;
40947;PMS5003;49382;-25.924;28.194;2023-01-28T03:34:57;17;16;
40947;PMS5003;49382;-25.924;28.194;2023-01-28T03:37:23;14;13;
40947;PMS5003;49382;-25.924;28.194;2023-01-28T03:39:49;15;15;
40947;PMS5003;49382;-25.924;28.194;2023-01-28T03:42:15;13;13;
40947;PMS5003;49382;-25.924;28.194;2023-01-28T03:44:40;13;12;
40947;PMS5003;49382;-25.924;28.194;2023-01-28T03:47:06;11;11;
40947;PMS5003;49382;-25.924;28.194;2023-01-28T03:49:32;12;12;
40947;PMS5003;49382;-25.924;28.194;2023-01-28T03:51:58;14;14;
40947;PMS5003;49382;-25.924;28.194;2023-01-28T03:54:24;21;21;
40947;PMS5003;49382;-25.924;28.194;2023-01-28T03:56:50;13;13;
40947;PMS5003;49382;-25.924;28.194;2023-01-28T03:59:15;15;14;
40947;PMS5003;49382;-25.924;28.194;2023-01-28T04:01:41;16;16;
40947;PMS5003;49382;-25.924;28.194;2023-01-28T04:04:07;15;14;
40947;PMS5003;49382;-25.924;28.194;2023-01-28T04:06:33;14;13;
40947;PMS5003;49382;-25.924;28.194;2023-01-28T04:08:58;11;11;
40947;PMS5003;49382;-25.924;28.194;2023-01-28T04:11:24;12;11;
40947;PMS5003;49382;-25.924;28.194;2023-01-28T04:13:50;13;13;
40947;PMS5003;49382;-25.924;28.194;2023-01-28T04:16:15;11;11;
40947;PMS5003;49382;-25.924;28.194;2023-01-28T04:18:40;14;13;
40947;PMS5003;49382;-25.924;28.194;2023-01-28T04:21:06;11;11;
40947;PMS5003;49382;-25.924;28.194;2023-01-28T04:23:32;12;12;
40947;PMS5003;49382;-25.924;28.194;2023-01-28T04:25:58;11;11;
40947;PMS5003;49382;-25.924;28.194;2023-01-28T04:28:24;13;12;
40947;PMS5003;49382;-25.924;28.194;2023-01-28T04:30:50;12;12;
40947;PMS5003;49382;-25.924;28.194;2023-01-28T04:33:15;10;10;
40947;PMS5003;49382;-25.924;28.194;2023-01-28T04:35:41;11;11;
40947;PMS5003;49382;-25.924;28.194;2023-01-28T04:38:07;8;8;
40947;PMS5003;49382;-25.924;28.194;2023-01-28T04:40:33;10;10;
40947;PMS5003;49382;-25.924;28.194;2023-01-28T04:42:59;10;10;
40947;PMS5003;49382;-25.924;28.194;2023-01-28T04:45:24;12;10;
40947;PMS5003;49382;-25.924;28.194;2023-01-28T04:47:50;11;10;
40947;PMS5003;49382;-25.924;28.194;2023-01-28T04:50:16;11;11;
40947;PMS5003;49382;-25.924;28.194;2023-01-28T04:52:42;11;11;
40947;PMS5003;49382;-25.924;28.194;2023-01-28T04:55:08;10;10;
40947;PMS5003;49382;-25.924;28.194;2023-01-28T04:57:33;9;9;
40947;PMS5003;49382;-25.924;28.194;2023-01-28T04:59:59;7;7;
40947;PMS5003;49382;-25.924;28.194;2023-01-28T05:02:25;9;7;
40947;PMS5003;49382;-25.924;28.194;2023-01-28T05:04:51;6;6;
40947;PMS5003;49382;-25.924;28.194;2023-01-28T05:07:16;7;6;
40947;PMS5003;49382;-25.924;28.194;2023-01-28T05:09:42;6;6;
40947;PMS5003;49382;-25.924;28.194;2023-01-28T05:12:08;6;6;
40947;PMS5003;49382;-25.924;28.194;2023-01-28T05:14:34;6;5;
40947;PMS5003;49382;-25.924;28.194;2023-01-28T05:17:00;7;7;
40947;PMS5003;49382;-25.924;28.194;2023-01-28T05:19:25;5;5;
40947;PMS5003;49382;-25.924;28.194;2023-01-28T05:21:51;7;7;
40947;PMS5003;49382;-25.924;28.194;2023-01-28T05:24:17;6;5;
40947;PMS5003;49382;-25.924;28.194;2023-01-28T05:26:43;4;4;
40947;PMS5003;49382;-25.924;28.194;2023-01-28T05:29:09;5;5;
40947;PMS5003;49382;-25.924;28.194;2023-01-28T05:31:34;3;3;
40947;PMS5003;49382;-25.924;28.194;2023-01-28T05:34:00;4;3;
40947;PMS5003;49382;-25.924;28.194;2023-01-28T05:36:26;5;5;
40947;PMS5003;49382;-25.924;28.194;2023-01-28T05:38:52;3;2;
40947;PMS5003;49382;-25.924;28.194;2023-01-28T05:41:17;4;4;
40947;PMS5003;49382;-25.924;28.194;2023-01-28T05:43:43;4;3;
40947;PMS5003;49382;-25.924;28.194;2023-01-28T05:46:09;4;4;
40947;PMS5003;49382;-25.924;28.194;2023-01-28T05:48:35;5;5;
40947;PMS5003;49382;-25.924;28.194;2023-01-28T05:51:00;4;4;
40947;PMS5003;49382;-25.924;28.194;2023-01-28T05:53:26;4;3;
40947;PMS5003;49382;-25.924;28.194;2023-01-28T05:55:52;3;3;
40947;PMS5003;49382;-25.924;28.194;2023-01-28T05:58:18;5;5;
40947;PMS5003;49382;-25.924;28.194;2023-01-28T06:00:43;4;4;
40947;PMS5003;49382;-25.924;28.194;2023-01-28T06:03:09;4;4;
40947;PMS5003;49382;-25.924;28.194;2023-01-28T06:05:35;4;4;
40947;PMS5003;49382;-25.924;28.194;2023-01-28T06:08:01;5;5;
40947;PMS5003;49382;-25.924;28.194;2023-01-28T06:10:27;5;5;
40947;PMS5003;49382;-25.924;28.194;2023-01-28T06:12:52;4;4;
40947;PMS5003;49382;-25.924;28.194;2023-01-28T06:15:18;5;5;
40947;PMS5003;49382;-25.924;28.194;2023-01-28T06:17:44;4;4;
40947;PMS5003;49382;-25.924;28.194;2023-01-28T06:20:10;4;4;
40947;PMS5003;49382;-25.924;28.194;2023-01-28T06:22:36;5;5;
40947;PMS5003;49382;-25.924;28.194;2023-01-28T06:25:01;5;5;
40947;PMS5003;49382;-25.924;28.194;2023-01-28T06:27:27;5;5;
40947;PMS5003;49382;-25.924;28.194;2023-01-28T06:29:53;5;5;
40947;PMS5003;49382;-25.924;28.194;2023-01-28T06:32:18;5;5;
40947;PMS5003;49382;-25.924;28.194;2023-01-28T06:34:44;5;5;
40947;PMS5003;49382;-25.924;28.194;2023-01-28T06:37:11;6;5;
40947;PMS5003;49382;-25.924;28.194;2023-01-28T06:39:36;6;6;
40947;PMS5003;49382;-25.924;28.194;2023-01-28T06:42:00;9;8;
40947;PMS5003;49382;-25.924;28.194;2023-01-28T06:44:26;7;7;
40947;PMS5003;49382;-25.924;28.194;2023-01-28T06:46:53;6;6;
40947;PMS5003;49382;-25.924;28.194;2023-01-28T06:49:17;6;6;
40947;PMS5003;49382;-25.924;28.194;2023-01-28T06:51:43;5;5;
40947;PMS5003;49382;-25.924;28.194;2023-01-28T06:54:09;5;5;
40947;PMS5003;49382;-25.924;28.194;2023-01-28T06:56:35;7;7;
40947;PMS5003;49382;-25.924;28.194;2023-01-28T06:59:01;11;11;
40947;PMS5003;49382;-25.924;28.194;2023-01-28T07:01:26;12;12;
40947;PMS5003;49382;-25.924;28.194;2023-01-28T07:03:52;12;12;
40947;PMS5003;49382;-25.924;28.194;2023-01-28T07:06:18;15;15;
40947;PMS5003;49382;-25.924;28.194;2023-01-28T07:08:44;19;18;
40947;PMS5003;49382;-25.924;28.194;2023-01-28T07:11:09;23;23;
40947;PMS5003;49382;-25.924;28.194;2023-01-28T07:13:35;21;21;
40947;PMS5003;49382;-25.924;28.194;2023-01-28T07:16:01;17;17;
40947;PMS5003;49382;-25.924;28.194;2023-01-28T07:18:27;10;10;
40947;PMS5003;49382;-25.924;28.194;2023-01-28T07:20:53;10;10;
40947;PMS5003;49382;-25.924;28.194;2023-01-28T07:23:18;6;6;
40947;PMS5003;49382;-25.924;28.194;2023-01-28T07:25:44;7;7;
40947;PMS5003;49382;-25.924;28.194;2023-01-28T07:28:10;7;7;
40947;PMS5003;49382;-25.924;28.194;2023-01-28T07:30:36;8;8;
40947;PMS5003;49382;-25.924;28.194;2023-01-28T07:33:01;7;7;
40947;PMS5003;49382;-25.924;28.194;2023-01-28T07:35:27;9;9;
40947;PMS5003;49382;-25.924;28.194;2023-01-28T07:37:54;8;8;
40947;PMS5003;49382;-25.924;28.194;2023-01-28T07:40:18;18;18;
40947;PMS5003;49382;-25.924;28.194;2023-01-28T07:42:44;9;9;
40947;PMS5003;49382;-25.924;28.194;2023-01-28T07:45:10;32;32;
40947;PMS5003;49382;-25.924;28.194;2023-01-28T07:47:35;66;66;
40947;PMS5003;49382;-25.924;28.194;2023-01-28T07:50:01;37;36;
40947;PMS5003;49382;-25.924;28.194;2023-01-28T07:52:26;38;38;
40947;PMS5003;49382;-25.924;28.194;2023-01-28T07:54:51;47;47;
40947;PMS5003;49382;-25.924;28.194;2023-01-28T07:57:16;45;45;
40947;PMS5003;49382;-25.924;28.194;2023-01-28T07:59:42;20;20;
40947;PMS5003;49382;-25.924;28.194;2023-01-28T08:02:09;18;18;
40947;PMS5003;49382;-25.924;28.194;2023-01-28T08:04:33;18;17;
40947;PMS5003;49382;-25.924;28.194;2023-01-28T08:06:59;21;21;
40947;PMS5003;49382;-25.924;28.194;2023-01-28T08:09:25;21;21;
40947;PMS5003;49382;-25.924;28.194;2023-01-28T08:11:51;18;17;
40947;PMS5003;49382;-25.924;28.194;2023-01-28T08:14:16;12;12;
40947;PMS5003;49382;-25.924;28.194;2023-01-28T08:16:42;12;12;
40947;PMS5003;49382;-25.924;28.194;2023-01-28T08:19:08;13;12;
40947;PMS5003;49382;-25.924;28.194;2023-01-28T08:21:34;11;10;
40947;PMS5003;49382;-25.924;28.194;2023-01-28T08:23:59;13;13;
40947;PMS5003;49382;-25.924;28.194;2023-01-28T08:26:25;13;13;
40947;PMS5003;49382;-25.924;28.194;2023-01-28T08:28:51;15;14;
40947;PMS5003;49382;-25.924;28.194;2023-01-28T08:31:17;14;14;
40947;PMS5003;49382;-25.924;28.194;2023-01-28T08:33:42;13;12;
40947;PMS5003;49382;-25.924;28.194;2023-01-28T08:36:08;13;13;
40947;PMS5003;49382;-25.924;28.194;2023-01-28T08:38:33;13;13;
40947;PMS5003;49382;-25.924;28.194;2023-01-28T08:40:59;12;12;
40947;PMS5003;49382;-25.924;28.194;2023-01-28T08:43:25;13;13;
40947;PMS5003;49382;-25.924;28.194;2023-01-28T08:45:51;13;13;
40947;PMS5003;49382;-25.924;28.194;2023-01-28T08:48:19;14;14;
40947;PMS5003;49382;-25.924;28.194;2023-01-28T08:50:42;12;12;
40947;PMS5003;49382;-25.924;28.194;2023-01-28T08:53:09;13;13;
40947;PMS5003;49382;-25.924;28.194;2023-01-28T08:55:34;12;12;
40947;PMS5003;49382;-25.924;28.194;2023-01-28T08:58:01;16;15;
40947;PMS5003;49382;-25.924;28.194;2023-01-28T09:00:25;14;14;
40947;PMS5003;49382;-25.924;28.194;2023-01-28T09:02:51;17;15;
40947;PMS5003;49382;-25.924;28.194;2023-01-28T09:05:16;15;14;
40947;PMS5003;49382;-25.924;28.194;2023-01-28T09:07:42;16;16;
40947;PMS5003;49382;-25.924;28.194;2023-01-28T09:10:08;15;14;
40947;PMS5003;49382;-25.924;28.194;2023-01-28T09:12:34;13;13;
40947;PMS5003;49382;-25.924;28.194;2023-01-28T09:14:59;14;14;
40947;PMS5003;49382;-25.924;28.194;2023-01-28T09:17:25;13;12;
40947;PMS5003;49382;-25.924;28.194;2023-01-28T09:19:51;14;14;
40947;PMS5003;49382;-25.924;28.194;2023-01-28T09:22:17;15;15;
40947;PMS5003;49382;-25.924;28.194;2023-01-28T09:24:43;16;15;
40947;PMS5003;49382;-25.924;28.194;2023-01-28T09:27:08;16;16;
40947;PMS5003;49382;-25.924;28.194;2023-01-28T09:29:34;19;18;
40947;PMS5003;49382;-25.924;28.194;2023-01-28T09:32:00;19;17;
40947;PMS5003;49382;-25.924;28.194;2023-01-28T09:34:25;18;18;
40947;PMS5003;49382;-25.924;28.194;2023-01-28T09:36:51;18;17;
40947;PMS5003;49382;-25.924;28.194;2023-01-28T09:39:17;17;17;
40947;PMS5003;49382;-25.924;28.194;2023-01-28T09:41:44;19;19;
40947;PMS5003;49382;-25.924;28.194;2023-01-28T09:44:15;19;19;
40947;PMS5003;49382;-25.924;28.194;2023-01-28T09:46:35;17;17;
40947;PMS5003;49382;-25.924;28.194;2023-01-28T09:49:01;19;19;
40947;PMS5003;49382;-25.924;28.194;2023-01-28T09:51:28;18;18;
40947;PMS5003;49382;-25.924;28.194;2023-01-28T09:53:52;17;17;
40947;PMS5003;49382;-25.924;28.194;2023-01-28T09:56:20;17;17;
40947;PMS5003;49382;-25.924;28.194;2023-01-28T09:58:43;19;19;
40947;PMS5003;49382;-25.924;28.194;2023-01-28T10:01:13;21;19;
40947;PMS5003;49382;-25.924;28.194;2023-01-28T10:03:39;18;18;
40947;PMS5003;49382;-25.924;28.194;2023-01-28T10:06:03;17;17;
40947;PMS5003;49382;-25.924;28.194;2023-01-28T10:08:30;18;18;
40947;PMS5003;49382;-25.924;28.194;2023-01-28T10:10:54;16;16;
40947;PMS5003;49382;-25.924;28.194;2023-01-28T10:13:20;19;19;
40947;PMS5003;49382;-25.924;28.194;2023-01-28T10:15:48;18;18;
40947;PMS5003;49382;-25.924;28.194;2023-01-28T10:18:09;17;17;
40947;PMS5003;49382;-25.924;28.194;2023-01-28T10:20:36;17;17;
40947;PMS5003;49382;-25.924;28.194;2023-01-28T10:23:03;19;19;
40947;PMS5003;49382;-25.924;28.194;2023-01-28T10:25:27;18;18;
40947;PMS5003;49382;-25.924;28.194;2023-01-28T10:27:52;17;17;
40947;PMS5003;49382;-25.924;28.194;2023-01-28T10:30:18;18;18;
40947;PMS5003;49382;-25.924;28.194;2023-01-28T10:32:44;18;17;
40947;PMS5003;49382;-25.924;28.194;2023-01-28T10:35:09;18;18;
40947;PMS5003;49382;-25.924;28.194;2023-01-28T10:37:35;15;15;
40947;PMS5003;49382;-25.924;28.194;2023-01-28T10:40:00;21;19;
40947;PMS5003;49382;-25.924;28.194;2023-01-28T10:42:28;18;18;
40947;PMS5003;49382;-25.924;28.194;2023-01-28T10:44:52;20;20;
40947;PMS5003;49382;-25.924;28.194;2023-01-28T10:47:19;20;20;
40947;PMS5003;49382;-25.924;28.194;2023-01-28T10:49:44;21;21;
40947;PMS5003;49382;-25.924;28.194;2023-01-28T10:52:10;19;19;
40947;PMS5003;49382;-25.924;28.194;2023-01-28T10:54:34;20;20;
40947;PMS5003;49382;-25.924;28.194;2023-01-28T10:57:01;21;21;
40947;PMS5003;49382;-25.924;28.194;2023-01-28T10:59:26;20;20;
40947;PMS5003;49382;-25.924;28.194;2023-01-28T11:01:52;20;20;
40947;PMS5003;49382;-25.924;28.194;2023-01-28T11:04:19;20;20;
40947;PMS5003;49382;-25.924;28.194;2023-01-28T11:11:34;16;16;
40947;PMS5003;49382;-25.924;28.194;2023-01-28T11:14:00;19;18;
40947;PMS5003;49382;-25.924;28.194;2023-01-28T11:16:26;16;16;
40947;PMS5003;49382;-25.924;28.194;2023-01-28T11:18:52;17;16;
40947;PMS5003;49382;-25.924;28.194;2023-01-28T11:21:18;16;16;
40947;PMS5003;49382;-25.924;28.194;2023-01-28T11:23:48;17;16;
40947;PMS5003;49382;-25.924;28.194;2023-01-28T11:26:13;14;14;
40947;PMS5003;49382;-25.924;28.194;2023-01-28T11:28:35;16;16;
40947;PMS5003;49382;-25.924;28.194;2023-01-28T11:31:01;14;14;
40947;PMS5003;49382;-25.924;28.194;2023-01-28T11:33:27;14;14;
40947;PMS5003;49382;-25.924;28.194;2023-01-28T11:35:52;13;13;
40947;PMS5003;49382;-25.924;28.194;2023-01-28T11:38:18;15;15;
40947;PMS5003;49382;-25.924;28.194;2023-01-28T11:43:09;14;14;
40947;PMS5003;49382;-25.924;28.194;2023-01-28T11:45:37;13;13;
40947;PMS5003;49382;-25.924;28.194;2023-01-28T11:48:04;12;12;
40947;PMS5003;49382;-25.924;28.194;2023-01-28T11:50:31;12;12;
40947;PMS5003;49382;-25.924;28.194;2023-01-28T11:52:56;13;13;
40947;PMS5003;49382;-25.924;28.194;2023-01-28T11:55:21;12;12;
40947;PMS5003;49382;-25.924;28.194;2023-01-28T11:57:45;14;14;
40947;PMS5003;49382;-25.924;28.194;2023-01-28T12:02:41;11;11;
40947;PMS5003;49382;-25.924;28.194;2023-01-28T12:07:30;11;11;
40947;PMS5003;49382;-25.924;28.194;2023-01-28T12:09:54;13;13;
40947;PMS5003;49382;-25.924;28.194;2023-01-28T12:12:24;11;11;
40947;PMS5003;49382;-25.924;28.194;2023-01-28T12:17:13;11;11;
40947;PMS5003;49382;-25.924;28.194;2023-01-28T12:19:39;9;9;
40947;PMS5003;49382;-25.924;28.194;2023-01-28T12:22:05;11;10;
40947;PMS5003;49382;-25.924;28.194;2023-01-28T12:24:32;11;11;
40947;PMS5003;49382;-25.924;28.194;2023-01-28T12:26:55;12;11;
40947;PMS5003;49382;-25.924;28.194;2023-01-28T12:29:22;11;10;
40947;PMS5003;49382;-25.924;28.194;2023-01-28T12:31:48;9;9;
40947;PMS5003;49382;-25.924;28.194;2023-01-28T12:36:39;11;11;
40947;PMS5003;49382;-25.924;28.194;2023-01-28T12:39:08;12;12;
40947;PMS5003;49382;-25.924;28.194;2023-01-28T12:41:28;10;10;
40947;PMS5003;49382;-25.924;28.194;2023-01-28T12:43:54;8;8;
40947;PMS5003;49382;-25.924;28.194;2023-01-28T12:48:45;7;7;
40947;PMS5003;49382;-25.924;28.194;2023-01-28T12:51:11;9;9;
40947;PMS5003;49382;-25.924;28.194;2023-01-28T12:53:37;8;8;
40947;PMS5003;49382;-25.924;28.194;2023-01-28T12:56:04;9;9;
40947;PMS5003;49382;-25.924;28.194;2023-01-28T12:58:31;10;9;
40947;PMS5003;49382;-25.924;28.194;2023-01-28T13:00:53;9;9;
40947;PMS5003;49382;-25.924;28.194;2023-01-28T13:03:19;9;9;
40947;PMS5003;49382;-25.924;28.194;2023-01-28T13:05:45;9;9;
40947;PMS5003;49382;-25.924;28.194;2023-01-28T13:08:10;10;10;
40947;PMS5003;49382;-25.924;28.194;2023-01-28T13:10:36;11;11;
40947;PMS5003;49382;-25.924;28.194;2023-01-28T13:13:01;9;9;
40947;PMS5003;49382;-25.924;28.194;2023-01-28T13:15:27;11;10;
40947;PMS5003;49382;-25.924;28.194;2023-01-28T13:17:55;9;9;
40947;PMS5003;49382;-25.924;28.194;2023-01-28T13:22:44;6;6;
40947;PMS5003;49382;-25.924;28.194;2023-01-28T13:27:35;8;8;
40947;PMS5003;49382;-25.924;28.194;2023-01-28T13:30:03;8;8;
40947;PMS5003;49382;-25.924;28.194;2023-01-28T13:32:28;8;8;
40947;PMS5003;49382;-25.924;28.194;2023-01-28T13:34:56;7;7;
40947;PMS5003;49382;-25.924;28.194;2023-01-28T13:37:20;8;8;
40947;PMS5003;49382;-25.924;28.194;2023-01-28T13:39:46;10;10;
40947;PMS5003;49382;-25.924;28.194;2023-01-28T13:44:36;9;9;
40947;PMS5003;49382;-25.924;28.194;2023-01-28T13:49:29;9;9;
40947;PMS5003;49382;-25.924;28.194;2023-01-28T13:51:57;9;8;
40947;PMS5003;49382;-25.924;28.194;2023-01-28T13:54:19;9;9;
40947;PMS5003;49382;-25.924;28.194;2023-01-28T13:56:48;9;9;
40947;PMS5003;49382;-25.924;28.194;2023-01-28T14:08:57;9;9;
40947;PMS5003;49382;-25.924;28.194;2023-01-28T14:16:17;9;9;
40947;PMS5003;49382;-25.924;28.194;2023-01-28T14:18:36;10;10;
40947;PMS5003;49382;-25.924;28.194;2023-01-28T14:21:02;8;8;
40947;PMS5003;49382;-25.924;28.194;2023-01-28T14:23:27;10;10;
40947;PMS5003;49382;-25.924;28.194;2023-01-28T14:25:56;11;11;
40947;PMS5003;49382;-25.924;28.194;2023-01-28T14:28:19;9;9;
40947;PMS5003;49382;-25.924;28.194;2023-01-28T14:30:46;8;8;
40947;PMS5003;49382;-25.924;28.194;2023-01-28T14:33:10;10;10;
40947;PMS5003;49382;-25.924;28.194;2023-01-28T14:35:36;11;11;
40947;PMS5003;49382;-25.924;28.194;2023-01-28T14:38:05;9;9;
40947;PMS5003;49382;-25.924;28.194;2023-01-28T14:40:27;8;8;
40947;PMS5003;49382;-25.924;28.194;2023-01-28T14:42:53;9;9;
40947;PMS5003;49382;-25.924;28.194;2023-01-28T14:45:22;11;11;
40947;PMS5003;49382;-25.924;28.194;2023-01-28T14:47:48;9;9;
40947;PMS5003;49382;-25.924;28.194;2023-01-28T14:50:16;11;11;
40947;PMS5003;49382;-25.924;28.194;2023-01-28T14:55:03;11;11;
40947;PMS5003;49382;-25.924;28.194;2023-01-28T14:57:32;10;10;
40947;PMS5003;49382;-25.924;28.194;2023-01-28T14:59:53;12;11;
40947;PMS5003;49382;-25.924;28.194;2023-01-28T15:02:20;10;10;
40947;PMS5003;49382;-25.924;28.194;2023-01-28T15:04:44;11;11;
40947;PMS5003;49382;-25.924;28.194;2023-01-28T15:07:15;11;11;
40947;PMS5003;49382;-25.924;28.194;2023-01-28T15:09:36;11;11;
40947;PMS5003;49382;-25.924;28.194;2023-01-28T15:12:01;10;10;
40947;PMS5003;49382;-25.924;28.194;2023-01-28T15:14:28;13;13;
40947;PMS5003;49382;-25.924;28.194;2023-01-28T15:16:53;12;12;
40947;PMS5003;49382;-25.924;28.194;2023-01-28T15:19:21;13;13;
40947;PMS5003;49382;-25.924;28.194;2023-01-28T15:21:44;11;11;
40947;PMS5003;49382;-25.924;28.194;2023-01-28T15:24:11;11;11;
40947;PMS5003;49382;-25.924;28.194;2023-01-28T15:26:36;12;12;
40947;PMS5003;49382;-25.924;28.194;2023-01-28T15:29:02;12;12;
40947;PMS5003;49382;-25.924;28.194;2023-01-28T15:31:28;10;10;
40947;PMS5003;49382;-25.924;28.194;2023-01-28T15:33:57;10;10;
40947;PMS5003;49382;-25.924;28.194;2023-01-28T15:36:19;10;10;
40947;PMS5003;49382;-25.924;28.194;2023-01-28T15:38:44;12;12;
40947;PMS5003;49382;-25.924;28.194;2023-01-28T15:41:10;9;9;
40947;PMS5003;49382;-25.924;28.194;2023-01-28T15:43:36;10;10;
40947;PMS5003;49382;-25.924;28.194;2023-01-28T15:46:02;13;12;
40947;PMS5003;49382;-25.924;28.194;2023-01-28T15:48:28;14;13;
40947;PMS5003;49382;-25.924;28.194;2023-01-28T15:53:19;11;11;
40947;PMS5003;49382;-25.924;28.194;2023-01-28T15:55:45;13;13;
40947;PMS5003;49382;-25.924;28.194;2023-01-28T16:00:36;12;12;
40947;PMS5003;49382;-25.924;28.194;2023-01-28T16:03:06;11;11;
40947;PMS5003;49382;-25.924;28.194;2023-01-28T16:05:29;11;11;
40947;PMS5003;49382;-25.924;28.194;2023-01-28T16:07:53;10;10;
40947;PMS5003;49382;-25.924;28.194;2023-01-28T16:10:20;13;13;
40947;PMS5003;49382;-25.924;28.194;2023-01-28T16:12:47;12;12;
40947;PMS5003;49382;-25.924;28.194;2023-01-28T16:15:14;11;11;
40947;PMS5003;49382;-25.924;28.194;2023-01-28T16:17:37;12;12;
40947;PMS5003;49382;-25.924;28.194;2023-01-28T16:20:04;13;11;
40947;PMS5003;49382;-25.924;28.194;2023-01-28T16:22:31;14;12;
40947;PMS5003;49382;-25.924;28.194;2023-01-28T16:24:53;14;14;
40947;PMS5003;49382;-25.924;28.194;2023-01-28T16:27:20;10;10;
40947;PMS5003;49382;-25.924;28.194;2023-01-28T16:29:45;11;11;
40947;PMS5003;49382;-25.924;28.194;2023-01-28T16:34:37;9;9;
40947;PMS5003;49382;-25.924;28.194;2023-01-28T16:37:07;12;12;
40947;PMS5003;49382;-25.924;28.194;2023-01-28T16:39:28;10;10;
40947;PMS5003;49382;-25.924;28.194;2023-01-28T16:41:53;12;11;